Time;durP1;ratioP1;P1;durP2;ratioP2;P2;SDS_P1;SDS_P2;PMS_P1;PMS_P2;Temp;Humidity;BMP_temperature;BMP_pressure;BME280_temperature;BME280_humidity;BME280_pressure;Samples;Min_cycle;Max_cycle;Signal;HPM_P1;HPM_P2
2024/04/13 00:00:31;;;;;;;7.28;6.10;;;;;;;13.08;100.00;102228.75;5464488;26;20013;-73
2024/04/13 00:02:56;;;;;;;8.40;5.65;;;;;;;13.07;100.00;102230.59;5481839;26;20474;-73
2024/04/13 00:05:21;;;;;;;8.05;5.63;;;;;;;13.07;100.00;102230.59;5471022;26;20002;-74
2024/04/13 00:07:53;;;;;;;9.82;5.82;;;;;;;13.02;100.00;102227.59;5481559;26;20020;-74
2024/04/13 00:10:18;;;;;;;8.82;6.03;;;;;;;13.00;100.00;102224.25;5471396;26;20010;-74
2024/04/13 00:12:44;;;;;;;8.75;6.03;;;;;;;12.93;100.00;102228.66;5479094;26;20302;-75
2024/04/13 00:15:09;;;;;;;7.65;5.60;;;;;;;12.92;100.00;102230.53;5488119;26;19986;-74
2024/04/13 00:17:34;;;;;;;7.45;5.65;;;;;;;12.93;100.00;102225.97;5503594;26;20002;-73
2024/04/13 00:20:03;;;;;;;8.00;5.57;;;;;;;12.85;100.00;102216.03;5502834;26;22889;-74
2024/04/13 00:22:29;;;;;;;6.55;5.07;;;;;;;12.84;100.00;102226.03;5493995;26;20025;-73
2024/04/13 00:24:55;;;;;;;8.98;5.40;;;;;;;12.78;100.00;102221.31;5479430;26;20018;-73
2024/04/13 00:27:23;;;;;;;7.40;5.72;;;;;;;12.74;100.00;102222.69;5484075;26;20365;-74
2024/04/13 00:29:51;;;;;;;7.18;5.30;;;;;;;12.85;100.00;102207.94;5474202;26;20017;-74
2024/04/13 00:32:17;;;;;;;6.38;4.80;;;;;;;12.82;100.00;102217.25;5469692;26;20008;-74
2024/04/13 00:34:47;;;;;;;6.80;4.95;;;;;;;12.82;100.00;102217.25;5479590;26;20317;-74
2024/04/13 00:37:13;;;;;;;7.70;5.40;;;;;;;12.85;100.00;102208.78;5449476;26;19995;-74
2024/04/13 00:39:38;;;;;;;7.03;5.00;;;;;;;12.82;100.00;102194.78;5482436;26;20030;-73
2024/04/13 00:42:06;;;;;;;7.30;4.75;;;;;;;12.74;100.00;102203.78;5480554;26;19998;-73
2024/04/13 00:44:31;;;;;;;9.25;5.03;;;;;;;12.76;100.00;102201.75;5481762;26;20012;-75
2024/04/13 00:47:05;;;;;;;8.32;4.88;;;;;;;12.65;100.00;102199.44;5481277;26;19998;-74
2024/04/13 00:49:32;;;;;;;7.78;4.78;;;;;;;12.66;100.00;102193.03;5424109;26;19998;-74
2024/04/13 00:51:58;;;;;;;7.35;5.07;;;;;;;12.59;100.00;102199.13;5479403;26;19998;-74
2024/04/13 00:54:24;;;;;;;7.10;5.18;;;;;;;12.56;100.00;102190.56;5448985;26;20013;-73
2024/04/13 00:56:50;;;;;;;10.88;4.88;;;;;;;12.66;100.00;102183.06;5419751;26;20391;-74
2024/04/13 00:59:15;;;;;;;6.53;4.90;;;;;;;12.63;100.00;102177.19;5449658;26;20087;-75
2024/04/13 01:01:41;;;;;;;8.00;5.32;;;;;;;12.56;100.00;102180.56;5470186;26;20046;-74
2024/04/13 01:04:08;;;;;;;7.13;5.35;;;;;;;12.54;100.00;102185.31;5480043;26;20013;-75
2024/04/13 01:06:35;;;;;;;6.72;5.45;;;;;;;12.54;100.00;102181.78;5480631;26;20442;-74
2024/04/13 01:09:00;;;;;;;7.40;5.57;;;;;;;12.56;100.00;102179.75;5480612;26;19998;-73
2024/04/13 01:11:26;;;;;;;6.25;5.32;;;;;;;12.52;100.00;102173.88;5477875;26;20012;-73
2024/04/13 01:13:54;;;;;;;7.03;5.47;;;;;;;12.59;100.00;102174.81;5480921;26;20014;-74
2024/04/13 01:16:27;;;;;;;6.93;5.07;;;;;;;12.63;100.00;102182.56;5449418;26;20013;-74
2024/04/13 01:18:53;;;;;;;7.10;5.60;;;;;;;12.58;100.00;102178.53;5480762;26;20002;-75
2024/04/13 01:21:18;;;;;;;7.88;4.97;;;;;;;12.61;100.00;102177.38;5480607;26;20444;-74
2024/04/13 01:23:44;;;;;;;7.22;4.90;;;;;;;12.58;100.00;102166.91;5480893;26;20006;-74
2024/04/13 01:26:09;;;;;;;6.90;4.93;;;;;;;12.61;100.00;102171.09;5480115;26;19998;-74
2024/04/13 01:28:36;;;;;;;7.30;5.10;;;;;;;12.52;100.00;102167.59;5418593;26;19998;-75
2024/04/13 01:31:02;;;;;;;8.02;4.82;;;;;;;12.56;100.00;102160.84;5480412;26;20002;-74
2024/04/13 01:33:28;;;;;;;7.40;4.80;;;;;;;12.55;100.00;102162.69;5468451;26;20010;-74
2024/04/13 01:36:00;;;;;;;6.97;5.03;;;;;;;12.64;100.00;102154.53;5478888;26;20002;-74
2024/04/13 01:38:26;;;;;;;7.50;4.80;;;;;;;12.64;100.00;102154.53;5481442;26;19998;-74
2024/04/13 01:40:51;;;;;;;7.97;4.65;;;;;;;12.68;100.00;102163.97;5480121;26;20017;-73
2024/04/13 01:43:17;;;;;;;7.50;4.55;;;;;;;12.69;100.00;102157.56;5478373;26;20016;-73
2024/04/13 01:45:42;;;;;;;6.68;4.38;;;;;;;12.66;100.00;102150.63;5481222;26;20037;-74
2024/04/13 01:48:10;;;;;;;5.18;4.15;;;;;;;12.72;100.00;102152.63;5480313;26;20014;-73
2024/04/13 01:50:37;;;;;;;8.70;4.95;;;;;;;12.70;100.00;102156.53;5477131;26;20074;-73
2024/04/13 01:53:03;;;;;;;7.75;4.63;;;;;;;12.62;100.00;102156.56;5481559;26;20044;-74
2024/04/13 01:55:28;;;;;;;6.80;4.93;;;;;;;12.59;100.00;102153.22;5479715;26;20017;-76
2024/04/13 01:57:53;;;;;;;6.47;5.18;;;;;;;12.57;100.00;102163.34;5479232;26;20009;-73
2024/04/13 02:00:20;;;;;;;6.75;4.72;;;;;;;12.40;100.00;102157.22;5478264;26;20009;-73
2024/04/13 02:02:45;;;;;;;7.57;5.20;;;;;;;12.37;100.00;102148.59;5480054;26;20442;-73
2024/04/13 02:05:11;;;;;;;7.60;4.88;;;;;;;12.38;100.00;102158.41;5478311;26;20434;-74
2024/04/13 02:07:36;;;;;;;7.25;5.15;;;;;;;12.47;100.00;102154.66;5480775;26;20135;-74
2024/04/13 02:10:02;;;;;;;6.30;5.00;;;;;;;12.41;100.00;102152.63;5479024;26;20363;-74
2024/04/13 02:12:28;;;;;;;7.20;4.90;;;;;;;12.55;100.00;102148.34;5479234;26;19999;-73
2024/04/13 02:14:54;;;;;;;7.40;5.10;;;;;;;12.48;100.00;102148.22;5460278;26;20472;-74
2024/04/13 02:17:22;;;;;;;8.25;4.80;;;;;;;12.57;100.00;102149.03;5461179;26;20509;-74
2024/04/13 02:19:48;;;;;;;7.60;4.60;;;;;;;12.58;100.00;102156.94;5439925;26;20010;-74
2024/04/13 02:22:15;;;;;;;6.13;5.28;;;;;;;12.51;100.00;102144.31;5485121;26;20342;-74
2024/04/13 02:24:43;;;;;;;6.38;5.32;;;;;;;12.56;100.00;102142.75;5482681;26;21017;-74
2024/04/13 02:27:09;;;;;;;9.45;5.60;;;;;;;12.55;100.00;102141.06;5481847;26;20029;-74
2024/04/13 02:29:34;;;;;;;10.88;5.35;;;;;;;12.51;100.00;102139.78;5427911;26;20002;-74
2024/04/13 02:32:00;;;;;;;6.75;5.03;;;;;;;12.54;100.00;102144.78;5462890;26;20009;-74
2024/04/13 02:34:25;;;;;;;7.88;5.25;;;;;;;12.52;100.00;102140.59;5470762;26;20060;-74
2024/04/13 02:36:57;;;;;;;7.05;5.10;;;;;;;12.51;100.00;102155.13;5483969;26;20008;-74
2024/04/13 02:39:22;;;;;;;6.10;4.75;;;;;;;12.30;100.00;102144.94;5482076;26;20323;-74
2024/04/13 02:41:48;;;;;;;8.68;5.28;;;;;;;12.20;100.00;102148.69;5474300;26;20051;-74
2024/04/13 02:44:14;;;;;;;7.82;5.38;;;;;;;12.26;100.00;102144.47;5473822;26;20002;-74
2024/04/13 02:46:39;;;;;;;10.40;5.65;;;;;;;12.20;100.00;102140.59;5482587;26;20030;-74
2024/04/13 02:49:04;;;;;;;9.43;5.70;;;;;;;12.21;100.00;102138.75;5482492;26;20437;-74
2024/04/13 02:51:33;;;;;;;8.60;5.80;;;;;;;12.11;100.00;102133.56;5483417;26;20445;-74
2024/04/13 02:53:58;;;;;;;8.05;5.70;;;;;;;12.01;100.00;102138.31;5481579;26;20006;-74
2024/04/13 02:56:24;;;;;;;8.88;6.00;;;;;;;11.93;100.00;102139.16;5482218;26;20021;-74
2024/04/13 02:58:49;;;;;;;8.70;5.90;;;;;;;11.91;100.00;102139.34;5472407;26;20014;-74
2024/04/13 03:01:14;;;;;;;7.97;5.97;;;;;;;11.90;100.00;102137.66;5481911;26;20314;-74
2024/04/13 03:03:40;;;;;;;8.43;6.03;;;;;;;11.95;100.00;102137.97;5482313;26;20010;-74
2024/04/13 03:06:08;;;;;;;8.75;6.03;;;;;;;11.92;100.00;102141.03;5451381;26;20346;-74
2024/04/13 03:08:38;;;;;;;8.27;6.18;;;;;;;11.87;100.00;102135.28;5481796;26;20013;-73
2024/04/13 03:11:04;;;;;;;9.63;5.97;;;;;;;11.90;100.00;102136.81;5482288;26;20013;-74
2024/04/13 03:13:29;;;;;;;10.95;6.22;;;;;;;11.91;100.00;102139.34;5482850;26;19998;-73
2024/04/13 03:16:08;;;;;;;6.43;5.30;;;;;;;11.93;100.00;102141.84;5481176;26;20074;-74
2024/04/13 03:18:34;;;;;;;8.10;5.75;;;;;;;11.89;100.00;102135.13;5482266;26;20010;-74
2024/04/13 03:20:59;;;;;;;10.48;6.32;;;;;;;11.84;100.00;102138.34;5482623;26;20026;-74
2024/04/13 03:23:27;;;;;;;8.98;6.45;;;;;;;11.81;100.00;102139.53;5481725;26;19999;-74
2024/04/13 03:25:53;;;;;;;9.13;6.07;;;;;;;11.85;100.00;102139.19;5481665;26;20466;-74
2024/04/13 03:28:24;;;;;;;6.72;5.85;;;;;;;11.81;100.00;102139.53;5481948;26;20002;-74
2024/04/13 03:30:50;;;;;;;10.70;6.15;;;;;;;11.83;100.00;102129.41;5482149;26;20016;-75
2024/04/13 03:33:16;;;;;;;8.45;6.38;;;;;;;11.77;100.00;102132.78;5481666;26;20381;-73
2024/04/13 03:35:41;;;;;;;8.73;6.55;;;;;;;11.70;100.00;102136.38;5471538;26;20082;-74
2024/04/13 03:38:06;;;;;;;7.35;6.15;;;;;;;11.78;100.00;102134.47;5481713;26;20002;-74
2024/04/13 03:40:35;;;;;;;11.07;6.60;;;;;;;11.76;100.00;102127.59;5481621;26;20009;-74
2024/04/13 03:43:00;;;;;;;8.23;6.40;;;;;;;11.86;100.00;102133.63;5481063;26;20001;-74
2024/04/13 03:45:26;;;;;;;10.93;6.40;;;;;;;11.84;100.00;102138.34;5481368;26;20078;-74
2024/04/13 03:47:51;;;;;;;8.52;6.47;;;;;;;11.75;100.00;102137.53;5480760;26;20002;-74
2024/04/13 03:50:17;;;;;;;9.70;6.80;;;;;;;11.65;100.00;102139.59;5481449;26;20006;-73
2024/04/13 03:52:43;;;;;;;8.95;6.07;;;;;;;11.67;100.00;102130.28;5481209;26;20327;-74
2024/04/13 03:55:08;;;;;;;7.72;6.55;;;;;;;11.70;100.00;102137.22;5481312;26;20005;-74
2024/04/13 03:57:34;;;;;;;12.15;6.70;;;;;;;11.61;100.00;102136.41;5481151;26;20415;-74
2024/04/13 04:00:02;;;;;;;8.75;6.38;;;;;;;11.63;100.00;102136.22;5483071;26;20009;-74
2024/04/13 04:02:28;;;;;;;9.05;7.30;;;;;;;11.60;100.00;102139.25;5480532;26;20460;-74
2024/04/13 04:04:54;;;;;;;11.30;7.05;;;;;;;11.51;100.00;102136.59;5480745;26;20002;-75
2024/04/13 04:07:19;;;;;;;8.20;6.95;;;;;;;11.57;100.00;102137.75;5444701;26;20006;-74
2024/04/13 04:09:44;;;;;;;11.27;7.30;;;;;;;11.46;100.00;102140.81;5473414;26;20013;-74
2024/04/13 04:12:10;;;;;;;9.57;7.00;;;;;;;11.46;100.00;102130.03;5479613;26;20074;-74
2024/04/13 04:14:36;;;;;;;10.05;7.50;;;;;;;11.42;100.00;102139.47;5482646;26;20020;-74
2024/04/13 04:17:01;;;;;;;7.75;6.95;;;;;;;11.46;100.00;102135.41;5480589;26;20006;-75
2024/04/13 04:19:28;;;;;;;10.13;7.47;;;;;;;11.50;100.00;102136.75;5479556;26;20006;-72
2024/04/13 04:21:54;;;;;;;8.85;7.15;;;;;;;11.48;100.00;102127.97;5481572;26;20010;-74
2024/04/13 04:24:22;;;;;;;10.02;7.60;;;;;;;11.51;100.00;102124.94;5482130;26;20002;-74
2024/04/13 04:26:48;;;;;;;9.35;7.60;;;;;;;11.46;100.00;102125.47;5479846;26;20005;-74
2024/04/13 04:29:14;;;;;;;10.32;7.47;;;;;;;11.46;100.00;102121.94;5482750;26;19998;-74
2024/04/13 04:31:41;;;;;;;11.27;7.15;;;;;;;11.46;100.00;102120.06;5479393;26;20002;-74
2024/04/13 04:34:07;;;;;;;11.73;7.57;;;;;;;11.50;100.00;102123.25;5479669;26;20802;-73
2024/04/13 04:36:32;;;;;;;10.88;7.95;;;;;;;11.45;100.00;102131.03;5481853;26;20330;-74
2024/04/13 04:38:58;;;;;;;10.70;7.60;;;;;;;11.40;100.00;102130.69;5480584;26;20009;-74
2024/04/13 04:41:23;;;;;;;13.70;7.88;;;;;;;11.29;100.00;102131.88;5479016;26;19997;-75
2024/04/13 04:43:49;;;;;;;10.75;7.88;;;;;;;11.37;100.00;102126.50;5482696;26;19990;-76
2024/04/13 04:46:15;;;;;;;13.05;7.80;;;;;;;11.49;100.00;102132.34;5479674;26;20030;-74
2024/04/13 04:48:40;;;;;;;9.30;7.80;;;;;;;11.49;100.00;102141.31;5472419;26;20080;-72
2024/04/13 04:51:07;;;;;;;9.68;7.57;;;;;;;11.53;100.00;102136.41;5480675;26;20006;-72
2024/04/13 04:53:32;;;;;;;11.75;7.65;;;;;;;11.61;100.00;102135.53;5479943;26;19998;-73
2024/04/13 04:55:58;;;;;;;10.02;7.65;;;;;;;11.58;100.00;102139.44;5480871;26;20502;-73
2024/04/13 04:58:24;;;;;;;9.55;7.07;;;;;;;11.59;100.00;102124.06;5481988;26;20383;-73
2024/04/13 05:00:50;;;;;;;8.43;7.38;;;;;;;11.63;100.00;102139.78;5479900;26;20001;-73
2024/04/13 05:03:15;;;;;;;9.52;7.10;;;;;;;11.71;100.00;102132.66;5480826;26;20009;-73
2024/04/13 05:05:41;;;;;;;9.98;7.07;;;;;;;11.83;100.00;102137.50;5471918;26;20002;-73
2024/04/13 05:08:09;;;;;;;10.90;6.93;;;;;;;11.89;100.00;102135.97;5479578;26;20422;-74
2024/04/13 05:10:37;;;;;;;10.23;7.05;;;;;;;11.93;100.00;102141.84;5457971;26;20059;-74
2024/04/13 05:13:02;;;;;;;8.43;6.72;;;;;;;11.93;100.00;102142.72;5431559;26;20029;-74
2024/04/13 05:15:28;;;;;;;9.70;7.28;;;;;;;11.94;100.00;102146.22;5454114;26;19998;-73
2024/04/13 05:17:53;;;;;;;9.45;7.13;;;;;;;12.05;100.00;102147.75;5480316;26;19998;-74
2024/04/13 05:20:19;;;;;;;12.27;6.85;;;;;;;12.10;100.00;102148.06;5481209;26;20013;-75
2024/04/13 05:22:44;;;;;;;8.23;6.75;;;;;;;12.15;100.00;102150.25;5479471;26;20013;-75
2024/04/13 05:25:09;;;;;;;11.10;7.25;;;;;;;12.16;100.00;102146.53;5458316;26;20421;-74
2024/04/13 05:27:35;;;;;;;10.85;7.50;;;;;;;12.17;100.00;102149.06;5457158;26;20002;-74
2024/04/13 05:30:04;;;;;;;10.30;7.18;;;;;;;12.16;100.00;102150.09;5467903;26;20099;-73
2024/04/13 05:32:29;;;;;;;7.72;6.88;;;;;;;12.26;100.00;102147.16;5477356;26;20053;-73
2024/04/13 05:34:54;;;;;;;9.27;6.90;;;;;;;12.30;100.00;102150.34;5479517;26;19998;-73
2024/04/13 05:37:20;;;;;;;9.45;6.88;;;;;;;12.36;100.00;102144.22;5480817;26;20034;-75
2024/04/13 05:39:45;;;;;;;11.15;6.95;;;;;;;12.37;100.00;102137.81;5468042;26;20018;-74
2024/04/13 05:42:13;;;;;;;8.70;7.30;;;;;;;12.48;100.00;102140.13;5480174;26;20797;-74
2024/04/13 05:44:39;;;;;;;8.57;6.65;;;;;;;12.56;100.00;102131.97;5468124;26;20438;-73
2024/04/13 05:47:04;;;;;;;8.75;7.15;;;;;;;12.65;100.00;102148.94;5460817;26;20071;-74
2024/04/13 05:49:32;;;;;;;10.57;7.43;;;;;;;12.71;100.00;102148.25;5474296;26;20065;-73
2024/04/13 05:51:58;;;;;;;9.18;6.75;;;;;;;12.80;100.00;102151.72;5477766;26;20013;-72
2024/04/13 05:54:23;;;;;;;9.52;7.40;;;;;;;12.89;100.00;102158.75;5476887;26;20310;-72
2024/04/13 05:56:48;;;;;;;8.98;7.90;;;;;;;13.01;100.00;102152.94;5474066;26;20038;-73
2024/04/13 05:59:14;;;;;;;11.48;8.15;;;;;;;13.06;100.00;102155.91;5478063;26;20002;-72
2024/04/13 06:01:41;;;;;;;12.43;8.07;;;;;;;13.04;100.00;102147.16;5475899;26;20014;-72
2024/04/13 06:04:07;;;;;;;13.75;7.80;;;;;;;13.06;100.00;102150.50;5476491;26;20319;-73
2024/04/13 06:06:32;;;;;;;11.93;7.53;;;;;;;13.11;100.00;102149.97;5464769;26;20017;-73
2024/04/13 06:08:57;;;;;;;11.25;7.90;;;;;;;13.18;100.00;102151.78;5477744;26;20105;-74
2024/04/13 06:11:23;;;;;;;9.48;7.53;;;;;;;13.27;100.00;102149.84;5475815;26;20010;-74
2024/04/13 06:13:48;;;;;;;8.68;7.65;;;;;;;13.32;100.00;102147.44;5465347;26;20017;-74
2024/04/13 06:16:14;;;;;;;11.82;7.85;;;;;;;13.48;100.00;102149.16;5467493;26;20708;-74
2024/04/13 06:18:39;;;;;;;10.00;8.30;;;;;;;13.62;100.00;102146.66;5465458;26;20010;-74
2024/04/13 06:21:04;;;;;;;9.98;7.40;;;;;;;13.74;100.00;102158.72;5477758;26;20021;-72
2024/04/13 06:23:32;;;;;;;8.65;7.32;;;;;;;13.73;100.00;102153.47;5477162;26;20003;-75
2024/04/13 06:25:58;;;;;;;9.52;7.25;;;;;;;13.77;100.00;102150.19;5474120;26;20069;-73
2024/04/13 06:28:23;;;;;;;9.05;6.93;;;;;;;13.80;100.00;102144.41;5469321;26;20445;-75
2024/04/13 06:30:49;;;;;;;11.80;7.68;;;;;;;14.01;100.00;102144.72;5448732;26;20058;-73
2024/04/13 06:33:16;;;;;;;13.23;7.97;;;;;;;14.28;100.00;102156.72;5440913;26;20016;-75
2024/04/13 06:35:42;;;;;;;9.07;7.28;;;;;;;14.60;100.00;102145.59;5447644;26;19995;-72
2024/04/13 06:38:07;;;;;;;9.68;7.55;;;;;;;15.05;99.12;102150.84;5473840;26;20006;-72
2024/04/13 06:40:35;;;;;;;12.85;7.45;;;;;;;15.64;95.96;102143.38;5469960;26;20013;-72
2024/04/13 06:43:01;;;;;;;9.82;7.28;;;;;;;15.89;92.85;102152.75;5476963;26;20094;-72
2024/04/13 06:45:27;;;;;;;9.82;7.43;;;;;;;15.93;91.90;102139.63;5475484;26;20013;-72
2024/04/13 06:47:52;;;;;;;10.88;7.45;;;;;;;15.89;91.46;102152.75;5464618;26;20358;-72
2024/04/13 06:50:17;;;;;;;9.80;7.18;;;;;;;15.91;92.00;102147.94;5476769;26;20334;-71
2024/04/13 06:52:43;;;;;;;8.73;7.50;;;;;;;15.65;92.76;102147.78;5415702;26;20042;-72
2024/04/13 06:55:08;;;;;;;10.48;7.75;;;;;;;15.60;93.60;102138.34;5447350;26;20082;-71
2024/04/13 06:57:33;;;;;;;10.20;7.68;;;;;;;15.75;93.16;102140.09;5477167;26;20002;-72
2024/04/13 06:59:59;;;;;;;9.90;7.50;;;;;;;15.89;92.57;102133.72;5476322;26;20372;-72
2024/04/13 07:02:25;;;;;;;10.60;7.68;;;;;;;16.06;91.07;102136.13;5475849;26;20034;-73
2024/04/13 07:04:50;;;;;;;10.10;7.50;;;;;;;16.07;90.86;102135.06;5478878;26;20006;-73
2024/04/13 07:07:16;;;;;;;9.38;7.38;;;;;;;16.16;91.77;102133.00;5480668;26;20351;-73
2024/04/13 07:09:41;;;;;;;9.18;7.47;;;;;;;16.74;86.69;102135.28;5478511;26;20345;-73
2024/04/13 07:12:09;;;;;;;9.35;7.55;;;;;;;16.49;89.11;102135.84;5480992;26;20022;-73
2024/04/13 07:14:35;;;;;;;9.50;7.00;;;;;;;16.70;87.34;102128.59;5469153;26;19997;-73
2024/04/13 07:17:01;;;;;;;10.00;7.30;;;;;;;16.79;86.48;102124.59;5486085;26;19994;-73
2024/04/13 07:19:27;;;;;;;11.88;7.60;;;;;;;16.79;87.95;102134.66;5498456;26;20077;-73
2024/04/13 07:21:52;;;;;;;11.00;7.55;;;;;;;16.73;88.03;102125.44;5499520;26;20010;-73
2024/04/13 07:24:18;;;;;;;13.70;8.65;;;;;;;16.58;88.45;102122.91;5489264;26;20006;-72
2024/04/13 07:26:43;;;;;;;9.85;8.02;;;;;;;16.23;90.62;102119.47;5499124;26;19994;-73
2024/04/13 07:29:09;;;;;;;11.68;8.18;;;;;;;16.51;89.66;102131.06;5479171;26;19994;-72
2024/04/13 07:31:34;;;;;;;11.18;8.13;;;;;;;16.39;88.46;102129.97;5481349;26;20025;-73
2024/04/13 07:34:00;;;;;;;12.25;8.15;;;;;;;16.46;89.61;102127.28;5481785;26;20002;-72
2024/04/13 07:36:25;;;;;;;13.30;8.40;;;;;;;16.68;88.71;102115.16;5479775;26;20495;-71
2024/04/13 07:38:50;;;;;;;10.98;8.27;;;;;;;16.85;87.66;102105.78;5480179;26;20024;-72
2024/04/13 07:41:16;;;;;;;14.38;8.52;;;;;;;17.05;86.45;102114.81;5480746;26;20355;-72
2024/04/13 07:43:41;;;;;;;9.90;7.72;;;;;;;17.58;83.49;102113.09;5478943;26;20078;-72
2024/04/13 07:46:10;;;;;;;11.00;8.52;;;;;;;18.19;80.59;102111.00;5448872;26;19999;-72
2024/04/13 07:48:35;;;;;;;9.02;7.57;;;;;;;18.94;77.02;102123.97;5442608;26;20003;-74
2024/04/13 07:51:00;;;;;;;9.52;7.43;;;;;;;19.48;73.85;102134.44;5465376;26;20025;-71
2024/04/13 07:53:30;;;;;;;12.63;8.38;;;;;;;18.84;75.37;102131.81;5436793;26;20013;-72
2024/04/13 07:55:55;;;;;;;14.05;8.32;;;;;;;18.19;79.00;102124.63;5447451;26;20012;-72
2024/04/13 07:58:21;;;;;;;13.05;8.15;;;;;;;18.16;79.39;102116.91;5441596;26;20017;-72
2024/04/13 08:00:46;;;;;;;12.18;7.82;;;;;;;18.79;77.69;102123.44;5478775;26;20038;-73
2024/04/13 08:03:12;;;;;;;9.15;7.50;;;;;;;20.00;72.21;102127.78;5477376;26;20481;-73
2024/04/13 08:05:37;;;;;;;11.32;7.93;;;;;;;20.58;67.79;102131.00;5479524;26;20002;-74
2024/04/13 08:08:03;;;;;;;11.52;7.43;;;;;;;21.25;64.02;102113.53;5479736;26;20430;-72
2024/04/13 08:10:36;;;;;;;9.70;7.60;;;;;;;21.27;63.65;102111.38;5477438;26;20006;-72
2024/04/13 08:13:01;;;;;;;8.90;7.00;;;;;;;20.89;65.04;102123.63;5479670;26;20076;-72
2024/04/13 08:15:28;;;;;;;10.68;7.30;;;;;;;20.39;67.28;102122.84;5478460;26;19998;-73
2024/04/13 08:17:56;;;;;;;13.73;7.80;;;;;;;20.88;65.33;102121.94;5478287;26;20006;-72
2024/04/13 08:20:21;;;;;;;10.75;8.00;;;;;;;20.86;65.48;102113.97;5448215;26;20027;-73
2024/04/13 08:22:49;;;;;;;11.68;8.23;;;;;;;20.78;65.37;102119.78;5477785;26;20480;-72
2024/04/13 08:25:15;;;;;;;10.80;7.72;;;;;;;21.08;64.76;102118.03;5464819;26;20014;-72
2024/04/13 08:27:40;;;;;;;10.95;8.05;;;;;;;21.52;62.96;102115.78;5478329;26;20350;-72
2024/04/13 08:30:07;;;;;;;9.57;6.75;;;;;;;21.30;63.42;102110.91;5478789;26;20010;-72
2024/04/13 08:32:32;;;;;;;9.57;7.72;;;;;;;20.94;64.37;102115.53;5477564;26;20002;-72
2024/04/13 08:34:58;;;;;;;8.32;7.07;;;;;;;21.31;63.38;102107.09;5470927;26;19995;-72
2024/04/13 08:37:23;;;;;;;9.15;7.03;;;;;;;21.48;62.04;102109.13;5477214;26;20030;-72
2024/04/13 08:39:51;;;;;;;11.45;7.63;;;;;;;21.28;62.24;102110.31;5467868;26;20017;-72
2024/04/13 08:42:22;;;;;;;9.10;7.20;;;;;;;20.71;64.10;102108.09;5478212;26;20014;-72
2024/04/13 08:44:51;;;;;;;10.20;6.90;;;;;;;20.38;66.74;102104.78;5413894;26;20513;-73
2024/04/13 08:47:16;;;;;;;10.30;7.53;;;;;;;20.20;67.31;102102.94;5446699;26;19998;-73
2024/04/13 08:49:42;;;;;;;11.02;7.30;;;;;;;;;;5447263;26;20002;-73
2024/04/13 08:52:07;;;;;;;10.27;7.60;;;;;;;20.26;67.54;102091.06;5445490;26;20017;-73
2024/04/13 08:54:32;;;;;;;7.85;6.57;;;;;;;20.36;68.58;102101.44;5478080;26;20044;-73
2024/04/13 08:57:01;;;;;;;8.93;6.90;;;;;;;20.85;67.04;102108.72;5448888;26;20038;-73
2024/04/13 08:59:27;;;;;;;10.02;6.97;;;;;;;20.87;65.55;102101.97;5477871;26;19998;-73
2024/04/13 09:01:52;;;;;;;12.88;7.43;;;;;;;21.08;64.13;102110.69;5478330;26;20002;-72
2024/04/13 09:04:18;;;;;;;9.32;7.30;;;;;;;21.05;64.44;102098.28;5412145;26;19999;-72
2024/04/13 09:06:44;;;;;;;10.07;7.00;;;;;;;21.42;64.44;102097.22;5440873;26;20019;-73
2024/04/13 09:09:10;;;;;;;8.40;7.18;;;;;;;21.88;61.20;102097.41;5439532;26;20026;-73
2024/04/13 09:11:36;;;;;;;9.48;6.90;;;;;;;21.83;61.05;102085.47;5442020;26;20075;-72
2024/04/13 09:14:03;;;;;;;9.77;6.95;;;;;;;21.77;61.32;102084.53;5441049;26;20417;-73
2024/04/13 09:16:28;;;;;;;10.00;7.22;;;;;;;21.32;63.92;102089.59;5426016;26;20377;-73
2024/04/13 09:18:54;;;;;;;12.18;6.97;;;;;;;21.84;62.43;102088.00;5478674;26;20009;-74
2024/04/13 09:21:19;;;;;;;7.68;6.88;;;;;;;22.36;59.83;102086.22;5476395;26;20057;-73
2024/04/13 09:23:44;;;;;;;11.18;6.90;;;;;;;22.50;59.97;102086.78;5445958;26;20038;-73
2024/04/13 09:26:10;;;;;;;8.60;6.70;;;;;;;22.24;60.02;102080.78;5476746;26;20002;-73
2024/04/13 09:28:43;;;;;;;8.10;6.53;;;;;;;22.02;61.48;102066.94;5477124;26;20457;-73
2024/04/13 09:31:08;;;;;;;11.05;7.10;;;;;;;21.95;61.83;102056.94;5465440;26;20569;-73
2024/04/13 09:33:34;;;;;;;9.57;6.97;;;;;;;21.99;62.53;102061.94;5477416;26;20025;-73
2024/04/13 09:35:59;;;;;;;10.68;7.18;;;;;;;22.48;60.85;102065.06;5436977;26;20397;-74
2024/04/13 09:38:25;;;;;;;11.20;7.00;;;;;;;22.62;61.08;102062.00;5466529;26;20002;-73
2024/04/13 09:40:57;;;;;;;9.60;6.72;;;;;;;22.68;59.64;102069.25;5475849;26;20416;-73
2024/04/13 09:43:22;;;;;;;10.57;7.00;;;;;;;22.56;60.48;102067.41;5434840;26;19999;-73
2024/04/13 09:45:58;;;;;;;8.18;6.63;;;;;;;23.07;59.00;102066.56;5477690;26;20056;-73
2024/04/13 09:48:23;;;;;;;14.82;6.97;;;;;;;23.21;57.75;102061.56;5476475;26;19994;-72
2024/04/13 09:50:52;;;;;;;11.68;7.00;;;;;;;23.19;57.88;102060.13;5476695;26;20021;-73
2024/04/13 09:53:17;;;;;;;9.07;7.03;;;;;;;23.05;58.46;102059.63;5465407;26;20800;-72
2024/04/13 09:55:43;;;;;;;9.40;6.63;;;;;;;23.23;58.98;102053.88;5465673;26;20075;-71
2024/04/13 09:58:08;;;;;;;10.68;7.22;;;;;;;23.11;59.05;102050.41;5444093;26;20010;-72
2024/04/13 10:00:34;;;;;;;9.45;6.53;;;;;;;23.10;58.61;102043.25;5392818;26;19999;-73
2024/04/13 10:03:00;;;;;;;9.40;7.00;;;;;;;22.90;59.27;102024.56;5444808;26;20025;-72
2024/04/13 10:05:25;;;;;;;10.85;7.05;;;;;;;23.34;56.82;102027.38;5444494;26;20009;-74
2024/04/13 10:07:50;;;;;;;9.10;6.72;;;;;;;23.63;56.29;102029.97;5446508;26;20013;-73
2024/04/13 10:10:30;;;;;;;11.35;6.70;;;;;;;23.71;56.30;102018.50;5442925;26;20058;-72
2024/04/13 10:12:56;;;;;;;7.63;6.80;;;;;;;23.98;54.73;102017.72;5436727;26;20490;-72
2024/04/13 10:15:22;;;;;;;9.38;6.63;;;;;;;24.18;54.00;102010.78;5473438;26;20013;-72
2024/04/13 10:17:47;;;;;;;10.40;6.38;;;;;;;24.30;54.13;102025.19;5418543;26;20014;-72
2024/04/13 10:20:14;;;;;;;8.50;6.50;;;;;;;24.46;53.28;102023.38;5428737;26;20002;-71
2024/04/13 10:22:40;;;;;;;10.23;6.75;;;;;;;25.13;51.37;102017.53;5477323;26;20018;-71
2024/04/13 10:25:07;;;;;;;8.35;6.45;;;;;;;25.39;50.95;102023.16;5476539;26;20069;-72
2024/04/13 10:27:33;;;;;;;9.00;6.28;;;;;;;25.52;50.63;102011.66;5464494;26;20458;-73
2024/04/13 10:29:59;;;;;;;10.48;6.50;;;;;;;25.28;50.32;102003.81;5477339;26;20020;-73
2024/04/13 10:32:25;;;;;;;8.65;6.68;;;;;;;24.53;52.63;102009.41;5476132;26;20002;-73
2024/04/13 10:34:51;;;;;;;9.80;6.80;;;;;;;23.88;55.22;102001.91;5477965;26;20457;-73
2024/04/13 10:37:29;;;;;;;9.07;7.00;;;;;;;24.30;54.18;101985.81;5445754;26;20051;-73
2024/04/13 10:39:57;;;;;;;9.50;6.97;;;;;;;24.42;54.47;101985.63;5481577;26;19999;-72
2024/04/13 10:42:38;;;;;;;9.50;6.55;;;;;;;24.56;53.97;101984.09;5431345;26;20008;-73
2024/04/13 10:45:09;;;;;;;7.78;6.53;;;;;;;24.63;52.76;101970.09;5423900;26;20366;-73
2024/04/13 10:47:35;;;;;;;9.80;6.00;;;;;;;24.55;54.12;101974.16;5434942;26;20354;-72
2024/04/13 10:50:00;;;;;;;8.35;5.82;;;;;;;24.92;52.49;101973.31;5393151;26;20430;-73
2024/04/13 10:52:26;;;;;;;7.32;6.20;;;;;;;25.06;52.09;101970.13;5411776;26;19999;-73
2024/04/13 10:54:55;;;;;;;10.02;6.00;;;;;;;25.10;52.08;101979.47;5444772;26;20079;-73
2024/04/13 10:57:24;;;;;;;8.95;5.72;;;;;;;24.97;50.25;101961.53;5444547;26;20014;-72
2024/04/13 10:59:49;;;;;;;7.95;5.65;;;;;;;24.62;50.88;101968.44;5475652;26;19998;-72
2024/04/13 11:02:14;;;;;;;7.75;5.70;;;;;;;24.62;50.68;101955.50;5439027;26;20445;-71
2024/04/13 11:04:43;;;;;;;8.15;5.40;;;;;;;24.07;52.35;101947.38;5481296;26;20033;-72
2024/04/13 11:07:10;;;;;;;9.27;5.90;;;;;;;24.23;51.62;101942.00;5478942;26;20005;-72
2024/04/13 11:09:35;;;;;;;8.80;5.70;;;;;;;24.15;53.05;101942.50;5481147;26;21300;-72
2024/04/13 11:12:01;;;;;;;7.32;5.47;;;;;;;24.47;51.98;101941.63;5447735;26;20075;-72
2024/04/13 11:14:26;;;;;;;10.40;5.10;;;;;;;24.81;52.22;101941.31;5479630;26;20025;-72